Paramaribo, Suriname
Current Conditions -  °F | °C
As of 7:00 AM on Wednesday 22 Oct 2014 (Local Time) from SMJP Reporting Station
Few Clouds Few Clouds  
Wind Chill: 77°   Ceiling: Unl
Heat Index: 78°   Visibility: 6mi
Dew Point: 73°   Wind: 2mph
Humidity: 89%   Direction: 140°SE
Pressure: 29.88"   Gusts: NA
Location:  5.45°N, 55.2°W
Report Text: SMJP 221000Z 14002KT 9999 FEW010 25/23 Q1012 NOSIG
Loading
Personal Weather Stations






























Interactive Weather Map
Tropical Storm Tracking
New forecast layout! Learn more

10-Day Weather Forecast

Advertisements
Track Severe Weather on mobile